createdAt,value
2018-12-07T00:02:09.115Z,50.75
2018-12-07T00:04:35.057Z,50.42
2018-12-07T00:07:01.008Z,50.93
2018-12-07T00:09:26.982Z,53.79
2018-12-07T00:11:52.922Z,51.02
2018-12-07T00:14:18.903Z,50.48
2018-12-07T00:16:44.865Z,51.24
2018-12-07T00:19:10.846Z,49.42
2018-12-07T00:21:36.812Z,49.37
2018-12-07T00:24:02.789Z,50.11
2018-12-07T00:26:28.761Z,50.10
2018-12-07T00:28:54.728Z,50.89
2018-12-07T00:31:20.689Z,53.07
2018-12-07T00:33:46.663Z,50.44
2018-12-07T00:36:12.605Z,54.00
2018-12-07T00:38:38.590Z,51.20
2018-12-07T00:41:04.545Z,51.69
2018-12-07T00:43:30.519Z,51.63
2018-12-07T00:45:56.486Z,53.10
2018-12-07T00:48:22.435Z,49.78
2018-12-07T00:50:48.399Z,51.64
2018-12-07T00:53:14.387Z,50.73
2018-12-07T00:55:40.328Z,51.28
2018-12-07T00:58:06.300Z,50.71
2018-12-07T01:00:32.238Z,50.51
2018-12-07T01:02:58.200Z,50.59
2018-12-07T01:05:24.159Z,49.80
2018-12-07T01:07:50.135Z,50.69
2018-12-07T01:10:16.081Z,50.07
2018-12-07T01:12:42.017Z,50.63
2018-12-07T01:15:07.985Z,50.49
2018-12-07T01:17:33.920Z,50.25
2018-12-07T01:19:59.887Z,50.67
2018-12-07T01:22:25.829Z,49.43
2018-12-07T01:24:51.792Z,50.10
2018-12-07T01:27:17.727Z,51.41
2018-12-07T01:29:43.695Z,50.47
2018-12-07T01:32:09.641Z,51.86
2018-12-07T01:34:35.647Z,52.28
2018-12-07T01:37:01.584Z,53.62
2018-12-07T01:39:27.607Z,50.70
2018-12-07T01:41:53.634Z,54.61
2018-12-07T01:44:19.605Z,50.31
2018-12-07T01:46:45.563Z,51.70
2018-12-07T01:49:11.521Z,50.29
2018-12-07T01:51:37.487Z,49.96
2018-12-07T01:54:03.471Z,49.94
2018-12-07T01:56:29.416Z,51.62
2018-12-07T01:58:55.393Z,49.89
2018-12-07T02:01:21.349Z,50.96
2018-12-07T02:03:47.320Z,50.35
2018-12-07T02:06:13.272Z,52.77
2018-12-07T02:08:39.256Z,50.70
2018-12-07T02:11:05.207Z,50.36
2018-12-07T02:13:31.176Z,51.78
2018-12-07T02:15:57.132Z,51.26
2018-12-07T02:18:23.110Z,50.86
2018-12-07T02:20:49.076Z,50.94
2018-12-07T02:23:15.089Z,49.93
2018-12-07T02:25:41.036Z,49.75
2018-12-07T02:28:06.983Z,49.92
2018-12-07T02:30:32.930Z,51.08
2018-12-07T02:32:58.869Z,51.17
2018-12-07T02:35:24.820Z,51.65
2018-12-07T02:37:50.760Z,50.81
2018-12-07T02:40:16.714Z,51.16
2018-12-07T02:42:42.663Z,50.66
2018-12-07T02:45:08.616Z,51.34
2018-12-07T02:47:34.567Z,51.35
2018-12-07T02:50:00.561Z,52.20
2018-12-07T02:52:26.610Z,51.46
2018-12-07T02:54:52.548Z,51.12
2018-12-07T02:57:18.510Z,52.84
2018-12-07T02:59:44.473Z,50.78
2018-12-07T03:02:10.428Z,50.10
2018-12-07T03:04:36.428Z,54.66
2018-12-07T03:07:02.370Z,52.81
2018-12-07T03:09:28.366Z,50.81
2018-12-07T03:11:54.328Z,51.81
2018-12-07T03:14:20.287Z,52.04
2018-12-07T03:16:46.220Z,50.72
2018-12-07T03:19:12.161Z,53.43
2018-12-07T03:21:38.097Z,50.92
2018-12-07T03:24:04.046Z,53.66
2018-12-07T03:26:29.984Z,50.75
2018-12-07T03:28:55.933Z,53.20
2018-12-07T03:31:22.004Z,50.56
2018-12-07T03:33:47.976Z,51.15
2018-12-07T03:36:13.951Z,51.62
2018-12-07T03:38:39.898Z,53.53
2018-12-07T03:41:05.844Z,51.08
2018-12-07T03:43:31.787Z,51.19
2018-12-07T03:45:57.720Z,53.03
2018-12-07T03:48:23.660Z,50.94
2018-12-07T03:50:49.621Z,52.15
2018-12-07T03:53:15.649Z,54.58
2018-12-07T03:55:41.588Z,50.70
2018-12-07T03:58:07.569Z,51.15
2018-12-07T04:00:34.237Z,50.83
2018-12-07T04:03:00.184Z,50.78
2018-12-07T04:05:26.129Z,52.60
2018-12-07T04:07:52.095Z,52.31
2018-12-07T04:10:18.064Z,53.26
2018-12-07T04:12:44.013Z,53.31
2018-12-07T04:15:09.986Z,56.99
2018-12-07T04:17:35.977Z,56.50
2018-12-07T04:20:01.933Z,56.38
2018-12-07T04:22:27.898Z,55.54
2018-12-07T04:24:53.889Z,51.68
2018-12-07T04:27:19.852Z,50.77
2018-12-07T04:29:45.838Z,52.92
2018-12-07T04:32:11.813Z,55.71
2018-12-07T04:34:37.832Z,56.26
2018-12-07T04:37:03.791Z,55.39
2018-12-07T04:39:29.874Z,52.12
2018-12-07T04:41:55.832Z,51.08
2018-12-07T04:44:21.840Z,52.05
2018-12-07T04:46:47.809Z,54.50
2018-12-07T04:49:13.770Z,52.97
2018-12-07T04:51:39.756Z,50.96
2018-12-07T04:54:06.767Z,54.80
2018-12-07T04:56:33.780Z,51.15
2018-12-07T04:58:59.927Z,50.83
2018-12-07T05:01:25.937Z,51.73
2018-12-07T05:03:51.892Z,55.05
2018-12-07T05:06:17.861Z,54.26
2018-12-07T05:08:43.944Z,54.85
2018-12-07T05:11:09.887Z,56.13
2018-12-07T05:13:35.857Z,53.48
2018-12-07T05:16:01.820Z,52.48
2018-12-07T05:18:27.787Z,53.82
2018-12-07T05:20:53.777Z,55.92
2018-12-07T05:23:19.810Z,58.00
2018-12-07T05:25:45.788Z,58.55
2018-12-07T05:28:11.757Z,57.28
2018-12-07T05:30:37.943Z,56.45
2018-12-07T05:33:04.012Z,57.48
2018-12-07T05:35:31.082Z,54.97
2018-12-07T05:37:57.034Z,56.60
2018-12-07T05:40:23.026Z,55.96
2018-12-07T05:45:20.963Z,55.35
2018-12-07T05:47:46.900Z,54.90
2018-12-07T05:52:45.885Z,56.66
2018-12-07T05:55:11.937Z,54.94
2018-12-07T05:57:37.928Z,53.82
2018-12-07T06:00:03.987Z,53.40
2018-12-07T06:02:29.948Z,51.20
2018-12-07T06:04:55.929Z,53.37
2018-12-07T06:07:22.154Z,55.34
2018-12-07T06:09:48.152Z,54.10
2018-12-07T06:12:14.110Z,55.05
2018-12-07T06:14:40.092Z,55.59
2018-12-07T06:17:06.045Z,55.74
2018-12-07T06:19:32.008Z,54.52
2018-12-07T06:21:57.954Z,53.46
2018-12-07T06:24:24.894Z,52.65
2018-12-07T06:26:50.837Z,57.61
2018-12-07T06:29:16.782Z,58.61
2018-12-07T06:31:42.739Z,57.42
2018-12-07T06:34:09.097Z,57.64
2018-12-07T06:36:35.052Z,58.85
2018-12-07T06:39:01.010Z,58.10
2018-12-07T06:41:26.975Z,57.99
2018-12-07T06:43:52.918Z,56.78
2018-12-07T06:46:19.458Z,54.50
2018-12-07T06:48:45.389Z,53.76
2018-12-07T06:51:11.369Z,52.93
2018-12-07T06:53:37.441Z,52.66
2018-12-07T06:56:03.419Z,52.15
2018-12-07T06:58:29.449Z,51.54
2018-12-07T07:00:55.394Z,56.01
2018-12-07T07:03:21.364Z,56.18
2018-12-07T07:05:47.342Z,56.14
2018-12-07T07:08:13.290Z,55.96
2018-12-07T07:10:39.240Z,53.50
2018-12-07T07:13:05.189Z,55.18
2018-12-07T07:15:31.271Z,55.56
2018-12-07T07:17:57.221Z,53.99
2018-12-07T07:20:23.269Z,55.93
2018-12-07T07:22:49.244Z,52.79
2018-12-07T07:25:15.185Z,55.09
2018-12-07T07:27:41.153Z,52.16
2018-12-07T07:30:07.113Z,52.03
2018-12-07T07:32:33.104Z,52.33
2018-12-07T07:34:59.079Z,51.23
2018-12-07T07:37:25.063Z,51.58
2018-12-07T07:39:51.046Z,50.97
2018-12-07T07:42:17.053Z,54.99
2018-12-07T07:44:43.065Z,55.27
2018-12-07T07:47:09.074Z,53.90
2018-12-07T07:52:07.587Z,52.63
2018-12-07T07:54:33.532Z,55.21
2018-12-07T07:56:59.476Z,54.41
2018-12-07T07:59:25.426Z,55.00
2018-12-07T08:01:51.404Z,53.50
2018-12-07T08:04:17.367Z,52.48
2018-12-07T08:06:43.340Z,56.24
2018-12-07T08:09:09.312Z,54.62
2018-12-07T08:11:35.279Z,54.45
2018-12-07T08:14:01.244Z,56.15
2018-12-07T08:16:27.187Z,53.06
2018-12-07T08:18:53.154Z,53.92
2018-12-07T08:21:19.115Z,52.80
2018-12-07T08:23:45.056Z,51.63
2018-12-07T08:26:11.024Z,53.01
2018-12-07T08:28:36.968Z,52.38
2018-12-07T08:31:02.913Z,51.65
2018-12-07T08:33:28.888Z,52.11
2018-12-07T08:35:54.879Z,51.94
2018-12-07T08:38:20.835Z,55.32
2018-12-07T08:40:46.804Z,55.59
2018-12-07T08:43:12.794Z,53.80
2018-12-07T08:45:38.824Z,55.00
2018-12-07T08:48:06.814Z,56.80
2018-12-07T08:50:32.774Z,55.01
2018-12-07T08:52:58.765Z,57.94
2018-12-07T08:55:24.757Z,54.35
2018-12-07T08:57:50.805Z,53.88
2018-12-07T09:00:16.758Z,52.50
2018-12-07T09:02:42.720Z,53.80
2018-12-07T09:05:08.703Z,53.68
2018-12-07T09:07:34.649Z,51.80
2018-12-07T09:10:00.621Z,53.47
2018-12-07T09:12:26.625Z,55.14
2018-12-07T09:14:52.604Z,54.10
2018-12-07T09:17:18.540Z,52.09
2018-12-07T09:19:44.495Z,53.58
2018-12-07T09:22:10.456Z,51.42
2018-12-07T09:24:36.424Z,50.93
2018-12-07T09:27:02.387Z,53.54
2018-12-07T09:29:28.361Z,51.47
2018-12-07T09:31:54.314Z,51.30
2018-12-07T09:34:20.287Z,51.49
2018-12-07T09:36:46.255Z,50.91
2018-12-07T09:39:12.226Z,51.13
2018-12-07T09:41:38.200Z,52.20
2018-12-07T09:44:04.153Z,51.29
2018-12-07T09:46:31.153Z,53.48
2018-12-07T09:48:57.132Z,56.83
2018-12-07T09:51:23.111Z,51.77
2018-12-07T09:53:49.088Z,54.10
2018-12-07T09:56:15.066Z,51.28
2018-12-07T09:58:41.148Z,50.79
2018-12-07T10:01:07.111Z,52.25
2018-12-07T10:03:33.100Z,51.28
2018-12-07T10:05:59.056Z,50.73
2018-12-07T10:08:25.065Z,54.71
2018-12-07T10:10:51.095Z,53.59
2018-12-07T10:13:17.089Z,52.13
2018-12-07T10:15:43.047Z,51.71
2018-12-07T10:18:09.044Z,52.17
2018-12-07T10:20:35.084Z,53.50
2018-12-07T10:23:01.074Z,53.60
2018-12-07T10:25:27.038Z,53.06
2018-12-07T10:27:52.999Z,52.14
2018-12-07T10:30:18.996Z,52.82
2018-12-07T10:32:44.970Z,52.29
2018-12-07T10:35:11.030Z,52.60
2018-12-07T10:37:37.896Z,52.58
2018-12-07T10:40:03.876Z,52.86
2018-12-07T10:42:29.847Z,53.27
2018-12-07T10:44:55.815Z,53.28
2018-12-07T10:47:21.921Z,52.63
2018-12-07T10:49:47.883Z,53.31
2018-12-07T10:52:13.835Z,53.36
2018-12-07T10:54:39.853Z,52.67
2018-12-07T10:57:05.820Z,52.00
2018-12-07T10:59:31.777Z,53.12
2018-12-07T11:01:57.743Z,52.60
2018-12-07T11:04:23.800Z,53.06
2018-12-07T11:06:49.914Z,52.92
2018-12-07T11:09:15.892Z,54.17
2018-12-07T11:11:41.868Z,53.23
2018-12-07T11:14:07.849Z,53.99
2018-12-07T11:16:33.820Z,52.66
2018-12-07T11:18:59.806Z,52.50
2018-12-07T11:21:25.744Z,53.38
2018-12-07T11:23:51.744Z,53.61
2018-12-07T11:26:17.710Z,54.35
2018-12-07T11:28:43.818Z,53.63
2018-12-07T11:31:09.831Z,54.58
2018-12-07T11:33:35.789Z,53.88
2018-12-07T11:36:07.957Z,53.40
2018-12-07T11:38:29.849Z,54.27
2018-12-07T11:40:55.853Z,53.73
2018-12-07T11:43:21.816Z,54.24
2018-12-07T11:45:47.761Z,54.91
2018-12-07T11:48:13.742Z,54.93
2018-12-07T11:50:39.691Z,55.32
2018-12-07T11:53:05.628Z,54.35
2018-12-07T11:55:31.573Z,55.78
2018-12-07T11:57:57.517Z,55.93
2018-12-07T12:00:23.486Z,57.33
2018-12-07T12:02:49.438Z,56.60
2018-12-07T12:05:15.378Z,58.37
2018-12-07T12:07:41.334Z,58.51
2018-12-07T12:10:07.292Z,58.43
2018-12-07T12:12:33.272Z,59.20
2018-12-07T12:14:59.273Z,58.57
2018-12-07T12:17:25.224Z,57.82
2018-12-07T12:19:51.166Z,58.38
2018-12-07T12:22:17.144Z,58.26
2018-12-07T12:24:43.089Z,58.27
2018-12-07T12:27:09.052Z,57.86
2018-12-07T12:29:35.022Z,57.28
2018-12-07T12:32:01.017Z,57.51
2018-12-07T12:34:27.072Z,58.06
2018-12-07T12:36:53.055Z,57.80
2018-12-07T12:39:19.042Z,57.70
2018-12-07T12:41:46.931Z,57.11
2018-12-07T12:44:13.009Z,56.47
2018-12-07T12:46:38.950Z,55.30
2018-12-07T12:49:04.901Z,52.80
2018-12-07T12:51:31.002Z,53.05
2018-12-07T12:53:56.976Z,52.88
2018-12-07T12:56:22.937Z,52.01
2018-12-07T12:58:48.908Z,52.20
2018-12-07T13:01:14.884Z,52.55
2018-12-07T13:03:40.869Z,54.49
2018-12-07T13:06:06.883Z,52.22
2018-12-07T13:08:32.891Z,54.63
2018-12-07T13:10:58.860Z,52.46
2018-12-07T13:13:24.828Z,51.14
2018-12-07T13:15:50.782Z,51.73
2018-12-07T13:18:16.717Z,52.42
2018-12-07T13:20:42.696Z,51.43
2018-12-07T13:23:08.708Z,51.73
2018-12-07T13:25:34.790Z,52.49
2018-12-07T13:28:00.742Z,53.27
2018-12-07T13:30:26.722Z,52.97
2018-12-07T13:32:52.725Z,53.37
2018-12-07T13:35:21.241Z,51.88
2018-12-07T13:37:47.471Z,51.70
2018-12-07T13:40:14.525Z,52.39
2018-12-07T13:42:40.691Z,52.19
2018-12-07T13:45:08.305Z,52.20
2018-12-07T13:47:34.709Z,52.27
2018-12-07T13:50:00.996Z,51.70
2018-12-07T13:52:27.179Z,51.84
2018-12-07T13:54:53.267Z,51.32
2018-12-07T13:57:19.347Z,52.33
2018-12-07T13:59:45.438Z,52.59
2018-12-07T14:02:11.473Z,52.79
2018-12-07T14:04:37.618Z,52.55
2018-12-07T14:07:03.688Z,52.22
2018-12-07T14:09:31.009Z,51.70
2018-12-07T14:11:57.078Z,51.96
2018-12-07T14:14:23.192Z,51.78
2018-12-07T14:16:49.386Z,51.56
2018-12-07T14:19:15.417Z,51.45
2018-12-07T14:21:41.460Z,53.20
2018-12-07T14:24:07.596Z,51.61
2018-12-07T14:26:33.687Z,51.34
2018-12-07T14:29:00.244Z,50.56
2018-12-07T14:31:26.551Z,51.90
2018-12-07T14:33:52.661Z,51.30
2018-12-07T14:36:18.759Z,51.58
2018-12-07T14:38:44.964Z,51.81
2018-12-07T14:41:11.244Z,50.51
2018-12-07T14:43:37.415Z,50.96
2018-12-07T14:46:03.492Z,51.11
2018-12-07T14:48:29.603Z,50.53
2018-12-07T14:50:55.713Z,50.70
2018-12-07T14:53:21.784Z,50.36
2018-12-07T14:55:47.920Z,50.34
2018-12-07T14:58:14.087Z,50.55
2018-12-07T15:00:40.238Z,50.83
2018-12-07T15:03:06.446Z,51.50
2018-12-07T15:05:32.541Z,51.61
2018-12-07T15:07:58.688Z,51.12
2018-12-07T15:10:24.688Z,51.03
2018-12-07T15:12:50.690Z,51.08
2018-12-07T15:15:16.707Z,51.63
2018-12-07T15:17:42.852Z,50.83
2018-12-07T15:20:10.222Z,50.58
2018-12-07T15:22:36.339Z,50.63
2018-12-07T15:25:02.550Z,50.70
2018-12-07T15:27:28.949Z,50.39
2018-12-07T15:29:55.221Z,50.54
2018-12-07T15:32:21.332Z,51.23
2018-12-07T15:34:47.409Z,51.15
2018-12-07T15:37:13.605Z,50.83
2018-12-07T15:39:39.721Z,50.33
2018-12-07T15:42:05.695Z,51.12
2018-12-07T15:44:31.801Z,51.05
2018-12-07T15:46:58.010Z,50.83
2018-12-07T15:49:24.251Z,51.15
2018-12-07T15:51:50.478Z,50.53
2018-12-07T15:54:16.441Z,51.09
2018-12-07T15:56:42.535Z,50.66
2018-12-07T15:59:08.702Z,50.22
2018-12-07T16:01:34.906Z,51.06
2018-12-07T16:04:01.161Z,51.05
2018-12-07T16:06:27.353Z,50.51
2018-12-07T16:08:53.630Z,50.37
2018-12-07T16:11:19.782Z,50.82
2018-12-07T16:13:45.981Z,50.69
2018-12-07T16:16:12.065Z,50.76
2018-12-07T16:18:38.255Z,50.57
2018-12-07T16:21:04.475Z,50.90
2018-12-07T16:23:30.605Z,50.52
2018-12-07T16:25:57.656Z,51.35
2018-12-07T16:28:23.733Z,50.63
2018-12-07T16:30:52.142Z,50.90
2018-12-07T16:33:18.406Z,50.79
2018-12-07T16:35:44.511Z,50.78
2018-12-07T16:38:10.653Z,51.06
2018-12-07T16:40:36.741Z,49.91
2018-12-07T16:43:02.812Z,50.79
2018-12-07T16:45:28.868Z,49.00
2018-12-07T16:47:54.866Z,49.64
2018-12-07T16:50:21.113Z,50.24
2018-12-07T16:52:47.339Z,49.15
2018-12-07T16:55:13.647Z,49.13
2018-12-07T16:57:41.149Z,49.89
2018-12-07T17:00:07.431Z,48.88
2018-12-07T17:02:33.551Z,49.06
2018-12-07T17:04:59.552Z,48.83
2018-12-07T17:07:25.680Z,48.50
2018-12-07T17:12:24.883Z,50.34
2018-12-07T17:14:51.009Z,53.40
2018-12-07T17:17:16.987Z,55.25
2018-12-07T17:19:43.047Z,56.65
2018-12-07T17:22:09.203Z,54.89
2018-12-07T17:24:35.447Z,52.25
2018-12-07T17:27:01.722Z,53.58
2018-12-07T17:29:27.896Z,53.73
2018-12-07T17:31:54.090Z,53.51
2018-12-07T17:34:20.238Z,54.22
2018-12-07T17:36:46.322Z,56.07
2018-12-07T17:39:12.377Z,54.91
2018-12-07T17:41:38.483Z,55.23
2018-12-07T17:44:04.538Z,54.35
2018-12-07T17:46:30.818Z,55.35
2018-12-07T17:48:56.982Z,55.55
2018-12-07T17:51:23.260Z,55.32
2018-12-07T17:53:49.431Z,54.81
2018-12-07T17:56:15.894Z,55.88
2018-12-07T17:58:42.063Z,55.65
2018-12-07T18:01:08.782Z,55.63
2018-12-07T18:03:34.740Z,55.71
2018-12-07T18:06:00.965Z,56.16
2018-12-07T18:08:28.017Z,55.53
2018-12-07T18:10:54.091Z,54.61
2018-12-07T18:13:20.279Z,54.94
2018-12-07T18:15:47.281Z,54.50
2018-12-07T18:18:13.596Z,55.36
2018-12-07T18:20:39.817Z,55.90
2018-12-07T18:23:06.848Z,56.10
2018-12-07T18:25:33.038Z,54.62
2018-12-07T18:27:59.210Z,54.23
2018-12-07T18:30:25.530Z,53.89
2018-12-07T18:32:51.667Z,53.23
2018-12-07T18:35:17.809Z,54.21
2018-12-07T18:37:43.932Z,54.46
2018-12-07T18:42:45.969Z,55.36
2018-12-07T18:45:12.203Z,54.59
2018-12-07T18:47:38.246Z,54.03
2018-12-07T18:50:04.411Z,53.92
2018-12-07T18:52:30.586Z,54.16
2018-12-07T18:54:56.658Z,54.17
2018-12-07T18:57:22.988Z,54.23
2018-12-07T18:59:49.301Z,53.14
2018-12-07T19:02:15.522Z,52.73
2018-12-07T19:04:42.734Z,52.72
2018-12-07T19:07:10.005Z,52.64
2018-12-07T19:09:36.121Z,52.38
2018-12-07T19:12:02.358Z,52.79
2018-12-07T19:14:28.481Z,51.82
2018-12-07T19:16:54.777Z,52.14
2018-12-07T19:19:20.918Z,51.94
2018-12-07T19:21:47.083Z,50.90
2018-12-07T19:24:13.655Z,50.04
2018-12-07T19:26:40.276Z,50.05
2018-12-07T19:29:06.384Z,49.87
2018-12-07T19:31:32.450Z,49.65
2018-12-07T19:33:58.607Z,49.31
2018-12-07T19:36:24.818Z,49.23
2018-12-07T19:38:52.042Z,49.60
2018-12-07T19:41:18.390Z,48.82
2018-12-07T19:43:44.564Z,48.21
2018-12-07T19:46:10.666Z,48.03
2018-12-07T19:48:36.720Z,48.39
2018-12-07T19:51:02.936Z,48.65
2018-12-07T19:53:29.506Z,48.44
2018-12-07T19:55:55.730Z,48.63
2018-12-07T19:58:21.720Z,48.09
2018-12-07T20:00:48.418Z,49.03
2018-12-07T20:03:14.705Z,48.23
2018-12-07T20:05:41.116Z,48.24
2018-12-07T20:08:07.587Z,48.50
2018-12-07T20:10:33.782Z,48.35
2018-12-07T20:13:00.982Z,48.51
2018-12-07T20:15:27.553Z,46.64
2018-12-07T20:17:53.866Z,47.23
2018-12-07T20:20:19.992Z,46.07
2018-12-07T20:22:46.007Z,46.91
2018-12-07T20:25:12.413Z,47.04
2018-12-07T20:27:38.652Z,46.83
2018-12-07T20:30:04.669Z,46.42
2018-12-07T20:32:30.937Z,47.44
2018-12-07T20:34:57.316Z,47.63
2018-12-07T20:37:23.670Z,47.52
2018-12-07T20:39:50.819Z,46.69
2018-12-07T20:42:17.085Z,45.87
2018-12-07T20:44:43.250Z,46.58
2018-12-07T20:47:09.350Z,47.10
2018-12-07T20:49:35.631Z,46.08
2018-12-07T20:52:02.201Z,45.51
2018-12-07T20:54:28.282Z,45.29
2018-12-07T20:56:54.400Z,45.92
2018-12-07T20:59:20.439Z,45.89
2018-12-07T21:01:51.568Z,44.95
2018-12-07T21:04:14.601Z,45.86
2018-12-07T21:06:40.809Z,46.36
2018-12-07T21:09:06.924Z,45.92
2018-12-07T21:11:32.998Z,45.48
2018-12-07T21:13:59.264Z,45.38
2018-12-07T21:16:25.690Z,46.09
2018-12-07T21:18:52.177Z,45.72
2018-12-07T21:21:18.501Z,45.64
2018-12-07T21:23:44.560Z,45.68
2018-12-07T21:26:10.585Z,44.96
2018-12-07T21:28:36.569Z,45.00
2018-12-07T21:31:02.831Z,45.02
2018-12-07T21:33:29.316Z,44.73
2018-12-07T21:35:55.709Z,45.75
2018-12-07T21:38:21.752Z,45.29
2018-12-07T21:40:47.806Z,44.44
2018-12-07T21:43:13.934Z,44.99
2018-12-07T21:45:40.115Z,45.17
2018-12-07T21:48:06.289Z,44.49
2018-12-07T21:50:32.941Z,44.12
2018-12-07T21:53:03.049Z,44.45
2018-12-07T21:55:29.387Z,44.31
2018-12-07T21:57:55.660Z,44.43
2018-12-07T22:00:21.668Z,45.77
2018-12-07T22:02:47.783Z,45.25
2018-12-07T22:05:14.047Z,44.74
2018-12-07T22:07:40.423Z,44.20
2018-12-07T22:10:06.785Z,44.52
2018-12-07T22:12:33.027Z,43.93
2018-12-07T22:14:59.295Z,43.66
2018-12-07T22:17:25.576Z,43.84
2018-12-07T22:19:51.923Z,44.29
2018-12-07T22:22:18.191Z,44.21
2018-12-07T22:24:44.320Z,44.81
2018-12-07T22:27:10.364Z,43.97
2018-12-07T22:29:36.375Z,43.33
2018-12-07T22:32:02.772Z,44.83
2018-12-07T22:34:28.977Z,45.31
2018-12-07T22:36:55.068Z,44.49
2018-12-07T22:39:22.131Z,45.12
2018-12-07T22:41:48.123Z,44.21
2018-12-07T22:44:14.238Z,45.67
2018-12-07T22:46:40.405Z,45.70
2018-12-07T22:49:06.584Z,44.67
2018-12-07T22:51:32.620Z,44.97
2018-12-07T22:53:58.635Z,43.38
2018-12-07T22:56:24.612Z,44.25
2018-12-07T22:58:50.611Z,45.24
2018-12-07T23:01:18.624Z,43.82
2018-12-07T23:03:44.597Z,44.02
2018-12-07T23:06:10.597Z,44.70
2018-12-07T23:08:36.562Z,43.65
2018-12-07T23:11:02.552Z,44.89
2018-12-07T23:13:28.552Z,44.71
2018-12-07T23:15:54.533Z,46.06
2018-12-07T23:18:20.489Z,46.11
2018-12-07T23:20:46.456Z,45.36
2018-12-07T23:23:12.507Z,46.05
2018-12-07T23:25:38.471Z,45.61
2018-12-07T23:28:04.432Z,44.37
2018-12-07T23:30:30.468Z,44.11
2018-12-07T23:32:56.447Z,44.35
2018-12-07T23:35:23.303Z,45.20
2018-12-07T23:37:49.299Z,45.91
2018-12-07T23:40:15.259Z,45.32
2018-12-07T23:42:41.227Z,47.02
2018-12-07T23:45:07.206Z,45.88
2018-12-07T23:47:33.168Z,45.91
2018-12-07T23:49:59.180Z,44.81
2018-12-07T23:52:25.140Z,44.88
2018-12-07T23:54:51.123Z,44.47
2018-12-07T23:57:17.088Z,43.96
2018-12-07T23:59:43.041Z,44.08
